sensor_id;sensor_type;location;lat;lon;timestamp;pressure;altitude;pressure_sealevel;temperature;humidity
69574;BME280;62840;52.366;5.980;2024-02-14T00:01:53;101181.47;;;8.33;74.66
69574;BME280;62840;52.366;5.980;2024-02-14T00:04:19;101204.44;;;8.34;74.74
69574;BME280;62840;52.366;5.980;2024-02-14T00:06:45;101187.53;;;8.35;74.61
69574;BME280;62840;52.366;5.980;2024-02-14T00:09:11;101182.97;;;8.37;74.69
69574;BME280;62840;52.366;5.980;2024-02-14T00:11:37;101184.66;;;8.38;74.71
69574;BME280;62840;52.366;5.980;2024-02-14T00:14:03;101175.75;;;8.39;74.79
69574;BME280;62840;52.366;5.980;2024-02-14T00:16:32;101184.44;;;8.41;74.84
69574;BME280;62840;52.366;5.980;2024-02-14T00:18:58;101180.84;;;8.42;74.91
69574;BME280;62840;52.366;5.980;2024-02-14T00:21:23;101179.13;;;8.41;74.90
69574;BME280;62840;52.366;5.980;2024-02-14T00:23:50;101170.22;;;8.42;75.11
69574;BME280;62840;52.366;5.980;2024-02-14T00:26:16;101167.56;;;8.42;75.20
69574;BME280;62840;52.366;5.980;2024-02-14T00:28:42;101169.25;;;8.43;75.32
69574;BME280;62840;52.366;5.980;2024-02-14T00:31:08;101173.53;;;8.46;75.28
69574;BME280;62840;52.366;5.980;2024-02-14T00:33:36;101163.53;;;8.49;75.30
69574;BME280;62840;52.366;5.980;2024-02-14T00:36:02;101176.81;;;8.49;75.37
69574;BME280;62840;52.366;5.980;2024-02-14T00:38:28;101171.50;;;8.49;75.47
69574;BME280;62840;52.366;5.980;2024-02-14T00:40:54;101165.97;;;8.52;75.55
69574;BME280;62840;52.366;5.980;2024-02-14T00:43:20;101162.34;;;8.53;75.53
69574;BME280;62840;52.366;5.980;2024-02-14T00:45:46;101157.88;;;8.54;75.71
69574;BME280;62840;52.366;5.980;2024-02-14T00:48:11;101154.38;;;8.53;75.69
69574;BME280;62840;52.366;5.980;2024-02-14T00:50:40;101158.72;;;8.54;75.57
69574;BME280;62840;52.366;5.980;2024-02-14T00:53:06;101155.13;;;8.55;75.70
69574;BME280;62840;52.366;5.980;2024-02-14T00:55:31;101162.03;;;8.58;75.76
69574;BME280;62840;52.366;5.980;2024-02-14T00:57:57;101154.06;;;8.58;75.68
69574;BME280;62840;52.366;5.980;2024-02-14T01:00:23;101144.28;;;8.58;75.69
69574;BME280;62840;52.366;5.980;2024-02-14T01:02:49;101137.88;;;8.61;75.79
69574;BME280;62840;52.366;5.980;2024-02-14T01:05:15;101139.69;;;8.61;75.80
69574;BME280;62840;52.366;5.980;2024-02-14T01:07:43;101139.59;;;8.62;75.86
69574;BME280;62840;52.366;5.980;2024-02-14T01:10:09;101129.06;;;8.61;75.94
69574;BME280;62840;52.366;5.980;2024-02-14T01:12:35;101136.09;;;8.62;76.01
69574;BME280;62840;52.366;5.980;2024-02-14T01:15:01;101131.53;;;8.64;75.96
69574;BME280;62840;52.366;5.980;2024-02-14T01:17:27;101130.56;;;8.65;76.21
69574;BME280;62840;52.366;5.980;2024-02-14T01:19:53;101133.22;;;8.65;76.16
69574;BME280;62840;52.366;5.980;2024-02-14T01:22:19;101123.44;;;8.65;76.11
69574;BME280;62840;52.366;5.980;2024-02-14T01:24:47;101131.31;;;8.67;76.10
69574;BME280;62840;52.366;5.980;2024-02-14T01:27:13;101118.75;;;8.69;76.29
69574;BME280;62840;52.366;5.980;2024-02-14T01:29:39;101122.16;;;8.71;76.13
69574;BME280;62840;52.366;5.980;2024-02-14T01:32:05;101119.50;;;8.71;76.26
69574;BME280;62840;52.366;5.980;2024-02-14T01:34:31;101126.59;;;8.70;76.35
69574;BME280;62840;52.366;5.980;2024-02-14T01:36:57;101118.53;;;8.72;76.38
69574;BME280;62840;52.366;5.980;2024-02-14T01:39:23;101126.50;;;8.72;76.41
69574;BME280;62840;52.366;5.980;2024-02-14T01:41:51;101120.25;;;8.73;76.46
69574;BME280;62840;52.366;5.980;2024-02-14T01:44:18;101116.63;;;8.74;76.59
69574;BME280;62840;52.366;5.980;2024-02-14T01:46:44;101115.78;;;8.73;76.62
69574;BME280;62840;52.366;5.980;2024-02-14T01:49:11;101110.34;;;8.75;76.69
69574;BME280;62840;52.366;5.980;2024-02-14T01:51:38;101111.06;;;8.77;76.59
69574;BME280;62840;52.366;5.980;2024-02-14T01:54:06;101103.84;;;8.79;76.66
69574;BME280;62840;52.366;5.980;2024-02-14T01:56:33;101108.22;;;8.80;76.74
69574;BME280;62840;52.366;5.980;2024-02-14T01:59:01;101103.63;;;8.82;76.62
69574;BME280;62840;52.366;5.980;2024-02-14T02:01:28;101103.41;;;8.85;76.65
69574;BME280;62840;52.366;5.980;2024-02-14T02:03:54;101109.47;;;8.87;76.82
69574;BME280;62840;52.366;5.980;2024-02-14T02:06:20;101108.50;;;8.88;76.84
69574;BME280;62840;52.366;5.980;2024-02-14T02:08:46;101102.97;;;8.91;76.89
69574;BME280;62840;52.366;5.980;2024-02-14T02:11:12;101112.53;;;8.94;76.81
69574;BME280;62840;52.366;5.980;2024-02-14T02:13:38;101114.88;;;8.98;76.90
69574;BME280;62840;52.366;5.980;2024-02-14T02:16:07;101106.78;;;9.00;77.00
69574;BME280;62840;52.366;5.980;2024-02-14T02:18:33;101107.63;;;9.00;76.98
69574;BME280;62840;52.366;5.980;2024-02-14T02:20:59;101105.72;;;9.03;76.93
69574;BME280;62840;52.366;5.980;2024-02-14T02:23:27;101097.75;;;9.03;77.11
69574;BME280;62840;52.366;5.980;2024-02-14T02:25:53;101102.94;;;9.04;77.15
69574;BME280;62840;52.366;5.980;2024-02-14T02:28:19;101095.59;;;9.08;77.07
69574;BME280;62840;52.366;5.980;2024-02-14T02:30:45;101108.78;;;9.09;77.00
69574;BME280;62840;52.366;5.980;2024-02-14T02:33:11;101106.97;;;9.10;77.19
69574;BME280;62840;52.366;5.980;2024-02-14T02:35:37;101098.00;;;9.11;77.17
69574;BME280;62840;52.366;5.980;2024-02-14T02:38:05;101103.34;;;9.11;77.31
69574;BME280;62840;52.366;5.980;2024-02-14T02:40:33;101109.28;;;9.14;77.11
69574;BME280;62840;52.366;5.980;2024-02-14T02:42:59;101109.19;;;9.16;77.33
69574;BME280;62840;52.366;5.980;2024-02-14T02:45:25;101111.84;;;9.16;77.25
69574;BME280;62840;52.366;5.980;2024-02-14T02:47:51;101109.94;;;9.18;77.46
69574;BME280;62840;52.366;5.980;2024-02-14T02:50:17;101109.94;;;9.18;77.50
69574;BME280;62840;52.366;5.980;2024-02-14T02:52:43;101104.63;;;9.18;77.65
69574;BME280;62840;52.366;5.980;2024-02-14T02:55:09;101111.53;;;9.20;77.62
69574;BME280;62840;52.366;5.980;2024-02-14T02:57:37;101112.25;;;9.23;77.54
69574;BME280;62840;52.366;5.980;2024-02-14T03:00:06;101114.78;;;9.24;77.38
69574;BME280;62840;52.366;5.980;2024-02-14T03:02:33;101107.53;;;9.26;77.54
69574;BME280;62840;52.366;5.980;2024-02-14T03:04:58;101111.94;;;9.27;77.57
69574;BME280;62840;52.366;5.980;2024-02-14T03:07:24;101113.53;;;9.30;77.48
69574;BME280;62840;52.366;5.980;2024-02-14T03:09:50;101114.16;;;9.33;77.58
69574;BME280;62840;52.366;5.980;2024-02-14T03:12:16;101106.91;;;9.35;77.62
69574;BME280;62840;52.366;5.980;2024-02-14T03:14:45;101108.63;;;9.36;77.36
69574;BME280;62840;52.366;5.980;2024-02-14T03:17:10;101110.31;;;9.37;77.72
69574;BME280;62840;52.366;5.980;2024-02-14T03:19:36;101119.03;;;9.39;77.47
69574;BME280;62840;52.366;5.980;2024-02-14T03:22:02;101127.88;;;9.40;77.71
69574;BME280;62840;52.366;5.980;2024-02-14T03:24:28;101127.75;;;9.41;77.52
69574;BME280;62840;52.366;5.980;2024-02-14T03:26:54;101112.63;;;9.42;77.68
69574;BME280;62840;52.366;5.980;2024-02-14T03:29:20;101120.50;;;9.44;77.80
69574;BME280;62840;52.366;5.980;2024-02-14T03:31:49;101118.59;;;9.46;77.84
69574;BME280;62840;52.366;5.980;2024-02-14T03:34:15;101123.91;;;9.46;77.87
69574;BME280;62840;52.366;5.980;2024-02-14T03:36:40;101120.28;;;9.47;77.92
69574;BME280;62840;52.366;5.980;2024-02-14T03:39:06;101116.66;;;9.48;77.93
69574;BME280;62840;52.366;5.980;2024-02-14T03:41:32;101123.69;;;9.49;77.92
69574;BME280;62840;52.366;5.980;2024-02-14T03:43:58;101124.56;;;9.49;78.02
69574;BME280;62840;52.366;5.980;2024-02-14T03:46:24;101121.75;;;9.51;77.93
69574;BME280;62840;52.366;5.980;2024-02-14T03:48:53;101124.41;;;9.51;78.21
69574;BME280;62840;52.366;5.980;2024-02-14T03:51:19;101122.50;;;9.53;77.99
69574;BME280;62840;52.366;5.980;2024-02-14T03:53:44;101122.38;;;9.54;77.99
69574;BME280;62840;52.366;5.980;2024-02-14T03:56:10;101128.56;;;9.55;78.04
69574;BME280;62840;52.366;5.980;2024-02-14T03:58:36;101126.63;;;9.57;77.98
69574;BME280;62840;52.366;5.980;2024-02-14T04:01:02;101133.66;;;9.58;78.01
69574;BME280;62840;52.366;5.980;2024-02-14T04:03:28;101133.66;;;9.58;78.14
69574;BME280;62840;52.366;5.980;2024-02-14T04:05:57;101131.72;;;9.60;78.12
69574;BME280;62840;52.366;5.980;2024-02-14T04:08:23;101131.72;;;9.60;78.07
69574;BME280;62840;52.366;5.980;2024-02-14T04:10:49;101138.75;;;9.61;78.21
69574;BME280;62840;52.366;5.980;2024-02-14T04:13:15;101141.28;;;9.62;78.15
69574;BME280;62840;52.366;5.980;2024-02-14T04:15:42;101140.44;;;9.62;78.11
69574;BME280;62840;52.366;5.980;2024-02-14T04:18:08;101143.84;;;9.64;78.17
69574;BME280;62840;52.366;5.980;2024-02-14T04:20:34;101143.84;;;9.64;78.05
69574;BME280;62840;52.366;5.980;2024-02-14T04:23:03;101140.94;;;9.67;78.19
69574;BME280;62840;52.366;5.980;2024-02-14T04:25:29;101152.34;;;9.69;78.33
69574;BME280;62840;52.366;5.980;2024-02-14T04:27:54;101150.41;;;9.71;78.48
69574;BME280;62840;52.366;5.980;2024-02-14T04:30:20;101143.16;;;9.73;78.47
69574;BME280;62840;52.366;5.980;2024-02-14T04:32:46;101153.81;;;9.73;78.55
69574;BME280;62840;52.366;5.980;2024-02-14T04:35:12;101160.88;;;9.74;78.46
69574;BME280;62840;52.366;5.980;2024-02-14T04:37:38;101156.16;;;9.78;78.57
69574;BME280;62840;52.366;5.980;2024-02-14T04:40:08;101160.38;;;9.80;78.45
69574;BME280;62840;52.366;5.980;2024-02-14T04:42:34;101160.19;;;9.83;78.49
69574;BME280;62840;52.366;5.980;2024-02-14T04:45:00;101152.94;;;9.86;78.36
69574;BME280;62840;52.366;5.980;2024-02-14T04:47:26;101159.00;;;9.88;78.52
69574;BME280;62840;52.366;5.980;2024-02-14T04:49:52;101163.34;;;9.89;78.41
69574;BME280;62840;52.366;5.980;2024-02-14T04:52:17;101165.75;;;9.92;78.47
69574;BME280;62840;52.366;5.980;2024-02-14T04:54:43;101164.81;;;9.93;78.46
69574;BME280;62840;52.366;5.980;2024-02-14T04:57:12;101166.50;;;9.94;78.58
69574;BME280;62840;52.366;5.980;2024-02-14T04:59:38;101174.38;;;9.95;78.56
69574;BME280;62840;52.366;5.980;2024-02-14T05:02:04;101175.22;;;9.96;78.61
69574;BME280;62840;52.366;5.980;2024-02-14T05:04:30;101177.56;;;10.00;78.47
69574;BME280;62840;52.366;5.980;2024-02-14T05:06:56;101176.72;;;10.00;78.77
69574;BME280;62840;52.366;5.980;2024-02-14T05:09:21;101183.72;;;10.01;78.76
69574;BME280;62840;52.366;5.980;2024-02-14T05:11:47;101183.50;;;10.04;78.75
69574;BME280;62840;52.366;5.980;2024-02-14T05:14:16;101187.88;;;10.05;78.57
69574;BME280;62840;52.366;5.980;2024-02-14T05:16:42;101197.34;;;10.09;78.47
69574;BME280;62840;52.366;5.980;2024-02-14T05:19:07;101191.75;;;10.12;78.37
69574;BME280;62840;52.366;5.980;2024-02-14T05:21:33;101189.09;;;10.12;78.76
69574;BME280;62840;52.366;5.980;2024-02-14T05:23:59;101193.47;;;10.13;78.81
69574;BME280;62840;52.366;5.980;2024-02-14T05:26:25;101196.88;;;10.15;79.02
69574;BME280;62840;52.366;5.980;2024-02-14T05:28:51;101200.38;;;10.16;78.81
69574;BME280;62840;52.366;5.980;2024-02-14T05:31:19;101199.31;;;10.18;78.84
69574;BME280;62840;52.366;5.980;2024-02-14T05:33:45;101198.34;;;10.19;78.96
69574;BME280;62840;52.366;5.980;2024-02-14T05:36:11;101204.53;;;10.20;78.92
69574;BME280;62840;52.366;5.980;2024-02-14T05:38:37;101210.72;;;10.20;78.80
69574;BME280;62840;52.366;5.980;2024-02-14T05:41:03;101215.78;;;10.23;78.87
69574;BME280;62840;52.366;5.980;2024-02-14T05:43:29;101208.53;;;10.25;78.82
69574;BME280;62840;52.366;5.980;2024-02-14T05:45:55;101215.59;;;10.27;79.07
69574;BME280;62840;52.366;5.980;2024-02-14T05:48:24;101217.25;;;10.28;78.80
69574;BME280;62840;52.366;5.980;2024-02-14T05:50:50;101217.16;;;10.29;78.99
69574;BME280;62840;52.366;5.980;2024-02-14T05:53:15;101220.66;;;10.30;79.17
69574;BME280;62840;52.366;5.980;2024-02-14T05:55:41;101222.38;;;10.31;78.85
69574;BME280;62840;52.366;5.980;2024-02-14T05:58:07;101225.78;;;10.33;78.89
69574;BME280;62840;52.366;5.980;2024-02-14T06:00:33;101228.31;;;10.34;78.99
69574;BME280;62840;52.366;5.980;2024-02-14T06:02:59;101228.22;;;10.36;78.77
69574;BME280;62840;52.366;5.980;2024-02-14T06:05:27;101233.53;;;10.36;78.98
69574;BME280;62840;52.366;5.980;2024-02-14T06:07:53;101227.22;;;10.37;78.95
69574;BME280;62840;52.366;5.980;2024-02-14T06:10:19;101234.28;;;10.38;79.07
69574;BME280;62840;52.366;5.980;2024-02-14T06:12:45;101237.69;;;10.40;78.92
69574;BME280;62840;52.366;5.980;2024-02-14T06:15:11;101241.09;;;10.42;79.00
69574;BME280;62840;52.366;5.980;2024-02-14T06:17:37;101239.38;;;10.41;78.86
69574;BME280;62840;52.366;5.980;2024-02-14T06:20:03;101234.88;;;10.41;78.99
69574;BME280;62840;52.366;5.980;2024-02-14T06:22:32;101246.19;;;10.45;78.75
69574;BME280;62840;52.366;5.980;2024-02-14T06:24:58;101245.22;;;10.46;78.98
69574;BME280;62840;52.366;5.980;2024-02-14T06:27:24;101245.22;;;10.46;78.80
69574;BME280;62840;52.366;5.980;2024-02-14T06:29:50;101252.97;;;10.49;78.78
69574;BME280;62840;52.366;5.980;2024-02-14T06:32:15;101248.50;;;10.50;78.76
69574;BME280;62840;52.366;5.980;2024-02-14T06:34:41;101259.16;;;10.50;79.05
69574;BME280;62840;52.366;5.980;2024-02-14T06:37:07;101260.00;;;10.50;78.91
69574;BME280;62840;52.366;5.980;2024-02-14T06:39:36;101279.41;;;10.52;78.90
69574;BME280;62840;52.366;5.980;2024-02-14T06:42:02;101276.75;;;10.52;78.91
69574;BME280;62840;52.366;5.980;2024-02-14T06:44:28;101282.06;;;10.52;79.04
69574;BME280;62840;52.366;5.980;2024-02-14T06:46:53;101278.56;;;10.52;78.94
69574;BME280;62840;52.366;5.980;2024-02-14T06:49:19;101281.97;;;10.54;78.91
69574;BME280;62840;52.366;5.980;2024-02-14T06:51:45;101288.16;;;10.54;78.83
69574;BME280;62840;52.366;5.980;2024-02-14T06:54:11;101288.16;;;10.54;78.89
69574;BME280;62840;52.366;5.980;2024-02-14T06:56:40;101284.28;;;10.58;78.85
69574;BME280;62840;52.366;5.980;2024-02-14T06:59:05;101290.59;;;10.57;78.91
69574;BME280;62840;52.366;5.980;2024-02-14T07:01:31;101294.97;;;10.58;78.75
69574;BME280;62840;52.366;5.980;2024-02-14T07:03:58;101294.97;;;10.58;78.99
69574;BME280;62840;52.366;5.980;2024-02-14T07:06:24;101300.28;;;10.58;78.89
69574;BME280;62840;52.366;5.980;2024-02-14T07:08:50;101307.31;;;10.59;78.95
69574;BME280;62840;52.366;5.980;2024-02-14T07:11:16;101309.88;;;10.61;78.90
69574;BME280;62840;52.366;5.980;2024-02-14T07:13:45;101305.38;;;10.61;78.74
69574;BME280;62840;52.366;5.980;2024-02-14T07:16:11;101309.78;;;10.62;78.92
69574;BME280;62840;52.366;5.980;2024-02-14T07:18:36;101310.50;;;10.64;78.99
69574;BME280;62840;52.366;5.980;2024-02-14T07:21:03;101314.13;;;10.63;79.05
69574;BME280;62840;52.366;5.980;2024-02-14T07:23:29;101311.34;;;10.65;78.85
69574;BME280;62840;52.366;5.980;2024-02-14T07:25:55;101314.75;;;10.67;78.93
69574;BME280;62840;52.366;5.980;2024-02-14T07:28:20;101315.59;;;10.67;78.76
69574;BME280;62840;52.366;5.980;2024-02-14T07:30:49;101310.25;;;10.67;78.87
69574;BME280;62840;52.366;5.980;2024-02-14T07:33:15;101309.31;;;10.69;78.88
69574;BME280;62840;52.366;5.980;2024-02-14T07:35:41;101310.25;;;10.67;78.98
69574;BME280;62840;52.366;5.980;2024-02-14T07:38:07;101318.16;;;10.69;78.94
69574;BME280;62840;52.366;5.980;2024-02-14T07:40:32;101319.00;;;10.70;79.14
69574;BME280;62840;52.366;5.980;2024-02-14T07:42:58;101313.66;;;10.70;78.93
69574;BME280;62840;52.366;5.980;2024-02-14T07:45:24;101311.97;;;10.69;78.94
69574;BME280;62840;52.366;5.980;2024-02-14T07:47:53;101314.50;;;10.70;78.91
69574;BME280;62840;52.366;5.980;2024-02-14T07:50:18;101317.06;;;10.72;79.05
69574;BME280;62840;52.366;5.980;2024-02-14T07:52:45;101322.31;;;10.73;79.00
69574;BME280;62840;52.366;5.980;2024-02-14T07:55:12;101320.47;;;10.74;78.85
69574;BME280;62840;52.366;5.980;2024-02-14T07:57:39;101313.31;;;10.74;78.94
69574;BME280;62840;52.366;5.980;2024-02-14T08:00:08;101318.66;;;10.74;79.08
69574;BME280;62840;52.366;5.980;2024-02-14T08:02:35;101323.00;;;10.75;79.02
69574;BME280;62840;52.366;5.980;2024-02-14T08:05:04;101323.00;;;10.75;79.00
69574;BME280;62840;52.366;5.980;2024-02-14T08:07:30;101325.56;;;10.77;79.10
69574;BME280;62840;52.366;5.980;2024-02-14T08:09:56;101325.56;;;10.77;79.03
69574;BME280;62840;52.366;5.980;2024-02-14T08:12:22;101324.72;;;10.76;79.30
69574;BME280;62840;52.366;5.980;2024-02-14T08:14:48;101337.09;;;10.77;79.20
69574;BME280;62840;52.366;5.980;2024-02-14T08:17:14;101334.31;;;10.79;79.04
69574;BME280;62840;52.366;5.980;2024-02-14T08:19:39;101339.41;;;10.82;78.59
69574;BME280;62840;52.366;5.980;2024-02-14T08:22:08;101335.78;;;10.83;78.92
69574;BME280;62840;52.366;5.980;2024-02-14T08:24:34;101327.78;;;10.83;78.93
69574;BME280;62840;52.366;5.980;2024-02-14T08:27:00;101337.47;;;10.84;79.07
69574;BME280;62840;52.366;5.980;2024-02-14T08:29:26;101341.84;;;10.85;79.09
69574;BME280;62840;52.366;5.980;2024-02-14T08:31:51;101339.06;;;10.86;79.13
69574;BME280;62840;52.366;5.980;2024-02-14T08:34:17;101345.25;;;10.87;78.90
69574;BME280;62840;52.366;5.980;2024-02-14T08:36:43;101347.81;;;10.88;79.01
69574;BME280;62840;52.366;5.980;2024-02-14T08:39:12;101346.78;;;10.91;79.04
69574;BME280;62840;52.366;5.980;2024-02-14T08:41:37;101351.13;;;10.92;79.15
69574;BME280;62840;52.366;5.980;2024-02-14T08:44:04;101355.38;;;10.95;78.82
69574;BME280;62840;52.366;5.980;2024-02-14T08:46:30;101352.59;;;10.96;78.90
69574;BME280;62840;52.366;5.980;2024-02-14T08:48:56;101363.28;;;10.96;79.02
69574;BME280;62840;52.366;5.980;2024-02-14T08:51:21;101354.28;;;10.97;79.18
69574;BME280;62840;52.366;5.980;2024-02-14T08:53:47;101356.00;;;10.98;79.17
69574;BME280;62840;52.366;5.980;2024-02-14T08:56:16;101358.53;;;11.00;78.99
69574;BME280;62840;52.366;5.980;2024-02-14T08:58:42;101366.44;;;11.01;78.92
69574;BME280;62840;52.366;5.980;2024-02-14T09:01:08;101360.00;;;11.04;78.99
69574;BME280;62840;52.366;5.980;2024-02-14T09:03:34;101362.56;;;11.05;79.05
69574;BME280;62840;52.366;5.980;2024-02-14T09:06:00;101365.25;;;11.05;79.06
69574;BME280;62840;52.366;5.980;2024-02-14T09:08:26;101360.84;;;11.04;79.26
69574;BME280;62840;52.366;5.980;2024-02-14T09:10:51;101359.16;;;11.03;79.06
69574;BME280;62840;52.366;5.980;2024-02-14T09:13:20;101361.72;;;11.05;79.13
69574;BME280;62840;52.366;5.980;2024-02-14T09:15:46;101371.31;;;11.07;79.02
69574;BME280;62840;52.366;5.980;2024-02-14T09:18:12;101370.22;;;11.10;78.93
69574;BME280;62840;52.366;5.980;2024-02-14T09:20:37;101372.78;;;11.12;79.23
69574;BME280;62840;52.366;5.980;2024-02-14T09:23:04;101378.97;;;11.12;79.00
69574;BME280;62840;52.366;5.980;2024-02-14T09:25:29;101374.38;;;11.14;79.09
69574;BME280;62840;52.366;5.980;2024-02-14T09:27:55;101376.19;;;11.14;78.83
69574;BME280;62840;52.366;5.980;2024-02-14T09:30:24;101372.53;;;11.15;79.11
69574;BME280;62840;52.366;5.980;2024-02-14T09:32:50;101374.22;;;11.16;79.10
69574;BME280;62840;52.366;5.980;2024-02-14T09:35:16;101374.13;;;11.17;79.00
69574;BME280;62840;52.366;5.980;2024-02-14T09:37:42;101377.63;;;11.18;79.39
69574;BME280;62840;52.366;5.980;2024-02-14T09:40:09;101376.78;;;11.17;79.19
69574;BME280;62840;52.366;5.980;2024-02-14T09:42:38;101386.38;;;11.20;79.39
69574;BME280;62840;52.366;5.980;2024-02-14T09:45:09;101391.72;;;11.20;79.10
69574;BME280;62840;52.366;5.980;2024-02-14T09:47:39;101388.09;;;11.21;79.18
69574;BME280;62840;52.366;5.980;2024-02-14T09:50:08;101397.06;;;11.20;79.39
69574;BME280;62840;52.366;5.980;2024-02-14T09:52:38;101404.13;;;11.21;79.08
69574;BME280;62840;52.366;5.980;2024-02-14T09:55:05;101396.84;;;11.23;79.23
69574;BME280;62840;52.366;5.980;2024-02-14T09:57:32;101396.84;;;11.23;79.23
69574;BME280;62840;52.366;5.980;2024-02-14T10:00:00;101398.28;;;11.27;79.16
69574;BME280;62840;52.366;5.980;2024-02-14T10:02:26;101389.31;;;11.28;79.05
69574;BME280;62840;52.366;5.980;2024-02-14T10:04:54;101387.38;;;11.30;79.37
69574;BME280;62840;52.366;5.980;2024-02-14T10:07:20;101387.13;;;11.33;79.34
69574;BME280;62840;52.366;5.980;2024-02-14T10:09:46;101384.25;;;11.36;79.18
69574;BME280;62840;52.366;5.980;2024-02-14T10:12:12;101383.28;;;11.37;79.23
69574;BME280;62840;52.366;5.980;2024-02-14T10:14:38;101388.34;;;11.40;79.40
69574;BME280;62840;52.366;5.980;2024-02-14T10:17:04;101400.75;;;11.41;79.21
69574;BME280;62840;52.366;5.980;2024-02-14T10:19:30;101403.31;;;11.43;79.03
69574;BME280;62840;52.366;5.980;2024-02-14T10:21:59;101409.25;;;11.46;79.11
69574;BME280;62840;52.366;5.980;2024-02-14T10:24:26;101411.81;;;11.48;79.08
69574;BME280;62840;52.366;5.980;2024-02-14T10:26:52;101415.34;;;11.48;79.12
69574;BME280;62840;52.366;5.980;2024-02-14T10:29:19;101420.44;;;11.52;79.18
69574;BME280;62840;52.366;5.980;2024-02-14T10:31:45;101430.16;;;11.53;79.22
69574;BME280;62840;52.366;5.980;2024-02-14T10:34:12;101432.84;;;11.53;79.05
69574;BME280;62840;52.366;5.980;2024-02-14T10:36:38;101428.44;;;11.52;79.06
69574;BME280;62840;52.366;5.980;2024-02-14T10:39:11;101427.50;;;11.53;79.16
69574;BME280;62840;52.366;5.980;2024-02-14T10:41:37;101430.06;;;11.54;79.12
69574;BME280;62840;52.366;5.980;2024-02-14T10:44:04;101433.44;;;11.56;79.26
69574;BME280;62840;52.366;5.980;2024-02-14T10:46:31;101427.13;;;11.57;79.04
69574;BME280;62840;52.366;5.980;2024-02-14T10:49:02;101420.69;;;11.60;79.22
69574;BME280;62840;52.366;5.980;2024-02-14T10:51:31;101433.94;;;11.61;79.31
69574;BME280;62840;52.366;5.980;2024-02-14T10:53:58;101421.31;;;11.63;79.44
69574;BME280;62840;52.366;5.980;2024-02-14T10:56:29;101434.53;;;11.65;79.18
69574;BME280;62840;52.366;5.980;2024-02-14T10:58:56;101433.59;;;11.66;79.01
69574;BME280;62840;52.366;5.980;2024-02-14T11:01:22;101422.16;;;11.64;79.18
69574;BME280;62840;52.366;5.980;2024-02-14T11:03:49;101432.84;;;11.64;79.43
69574;BME280;62840;52.366;5.980;2024-02-14T11:06:16;101429.44;;;11.62;79.22
69574;BME280;62840;52.366;5.980;2024-02-14T11:08:42;101430.91;;;11.66;79.27
69574;BME280;62840;52.366;5.980;2024-02-14T11:11:08;101438.94;;;11.66;79.27
69574;BME280;62840;52.366;5.980;2024-02-14T11:13:40;101427.25;;;11.67;79.07
69574;BME280;62840;52.366;5.980;2024-02-14T11:16:09;101429.81;;;11.68;79.11
69574;BME280;62840;52.366;5.980;2024-02-14T11:18:35;101432.38;;;11.70;79.20
69574;BME280;62840;52.366;5.980;2024-02-14T11:21:03;101428.72;;;11.71;79.10
69574;BME280;62840;52.366;5.980;2024-02-14T11:23:30;101428.72;;;11.71;79.17
69574;BME280;62840;52.366;5.980;2024-02-14T11:25:59;101423.13;;;11.74;79.22
69574;BME280;62840;52.366;5.980;2024-02-14T11:28:26;101426.53;;;11.76;79.11
69574;BME280;62840;52.366;5.980;2024-02-14T11:30:58;101429.22;;;11.76;79.02
69574;BME280;62840;52.366;5.980;2024-02-14T11:33:26;101419.25;;;11.78;79.37
69574;BME280;62840;52.366;5.980;2024-02-14T11:35:53;101424.38;;;11.81;79.28
69574;BME280;62840;52.366;5.980;2024-02-14T11:38:20;101410.03;;;11.82;79.24
69574;BME280;62840;52.366;5.980;2024-02-14T11:40:46;101417.06;;;11.83;79.08
69574;BME280;62840;52.366;5.980;2024-02-14T11:43:13;101426.78;;;11.84;79.04
69574;BME280;62840;52.366;5.980;2024-02-14T11:45:41;101418.78;;;11.84;79.16
69574;BME280;62840;52.366;5.980;2024-02-14T11:48:12;101408.81;;;11.86;79.20
69574;BME280;62840;52.366;5.980;2024-02-14T11:50:39;101403.59;;;11.85;79.03
69574;BME280;62840;52.366;5.980;2024-02-14T11:53:06;101411.38;;;11.88;79.17
69574;BME280;62840;52.366;5.980;2024-02-14T11:55:34;101399.69;;;11.89;79.50
69574;BME280;62840;52.366;5.980;2024-02-14T11:58:00;101404.94;;;11.90;79.35
69574;BME280;62840;52.366;5.980;2024-02-14T12:00:25;101418.31;;;11.90;79.28
69574;BME280;62840;52.366;5.980;2024-02-14T12:02:52;101403.94;;;11.91;79.35
69574;BME280;62840;52.366;5.980;2024-02-14T12:05:21;101411.00;;;11.93;79.29
69574;BME280;62840;52.366;5.980;2024-02-14T12:07:47;101399.44;;;11.92;79.29
69574;BME280;62840;52.366;5.980;2024-02-14T12:10:13;101405.66;;;11.93;78.95
69574;BME280;62840;52.366;5.980;2024-02-14T12:12:39;101405.53;;;11.94;79.31
69574;BME280;62840;52.366;5.980;2024-02-14T12:15:09;101394.00;;;11.94;79.40
69574;BME280;62840;52.366;5.980;2024-02-14T12:17:35;101394.72;;;11.96;79.41
69574;BME280;62840;52.366;5.980;2024-02-14T12:20:09;101393.00;;;11.95;79.30
69574;BME280;62840;52.366;5.980;2024-02-14T12:22:38;101391.06;;;11.97;79.43
69574;BME280;62840;52.366;5.980;2024-02-14T12:25:06;101397.13;;;11.99;79.23
69574;BME280;62840;52.366;5.980;2024-02-14T12:27:33;101399.81;;;11.99;79.25
69574;BME280;62840;52.366;5.980;2024-02-14T12:29:59;101403.47;;;11.98;79.44
69574;BME280;62840;52.366;5.980;2024-02-14T12:32:24;101389.13;;;11.99;79.28
69574;BME280;62840;52.366;5.980;2024-02-14T12:34:50;101392.53;;;12.01;79.38
69574;BME280;62840;52.366;5.980;2024-02-14T12:37:16;101401.53;;;12.00;79.49
69574;BME280;62840;52.366;5.980;2024-02-14T12:39:45;101401.28;;;12.03;79.43
69574;BME280;62840;52.366;5.980;2024-02-14T12:42:10;101396.78;;;12.03;79.44
69574;BME280;62840;52.366;5.980;2024-02-14T12:44:36;101400.19;;;12.05;79.47
69574;BME280;62840;52.366;5.980;2024-02-14T12:47:03;101392.03;;;12.07;79.36
69574;BME280;62840;52.366;5.980;2024-02-14T12:49:28;101390.09;;;12.09;79.43
69574;BME280;62840;52.366;5.980;2024-02-14T12:51:54;101390.81;;;12.11;79.61